Time;durP1;ratioP1;P1;durP2;ratioP2;P2;SDS_P1;SDS_P2;PMS_P1;PMS_P2;Temp;Humidity;BMP_temperature;BMP_pressure;BME280_temperature;BME280_humidity;BME280_pressure;Samples;Min_cycle;Max_cycle;Signal;HPM_P1;HPM_P2
2022/08/05 00:00:14;;;;;;;4.15;2.20;;;23.90;47.60;;;;;;5054080;28;20021;-77
2022/08/05 00:02:39;;;;;;;2.78;2.20;;;23.90;47.50;;;;;;5053898;28;20029;-77
2022/08/05 00:05:05;;;;;;;3.67;2.28;;;23.90;47.30;;;;;;5053770;28;20044;-77
2022/08/05 00:07:31;;;;;;;4.35;2.28;;;23.80;47.70;;;;;;5053816;28;20033;-77
2022/08/05 00:09:56;;;;;;;3.25;2.05;;;23.60;48.10;;;;;;5053836;28;20025;-77
2022/08/05 00:12:22;;;;;;;4.50;2.40;;;23.60;47.90;;;;;;5053781;28;20029;-77
2022/08/05 00:14:47;;;;;;;2.47;2.05;;;23.50;48.60;;;;;;5086071;28;20017;-77
2022/08/05 00:17:13;;;;;;;2.60;2.00;;;23.50;48.90;;;;;;5053703;28;20040;-77
2022/08/05 00:19:38;;;;;;;3.03;2.17;;;23.70;49.20;;;;;;5053572;28;20074;-77
2022/08/05 00:22:04;;;;;;;2.75;2.05;;;23.80;48.70;;;;;;5053665;28;20224;-77
2022/08/05 00:24:29;;;;;;;4.45;2.10;;;24.00;47.90;;;;;;5053519;28;20032;-78
2022/08/05 00:26:55;;;;;;;2.30;1.95;;;24.10;47.30;;;;;;5052131;28;20029;-78
2022/08/05 00:29:21;;;;;;;2.40;2.10;;;24.10;47.00;;;;;;5053471;28;20387;-78
2022/08/05 00:31:46;;;;;;;4.15;2.28;;;24.10;47.40;;;;;;5053292;28;20025;-78
2022/08/05 00:34:12;;;;;;;3.85;2.47;;;24.10;47.70;;;;;;5053420;28;20071;-78
2022/08/05 00:36:38;;;;;;;3.47;1.88;;;24.10;47.30;;;;;;5085628;28;20028;-79
2022/08/05 00:39:03;;;;;;;2.60;2.10;;;24.10;47.60;;;;;;5053326;28;20389;-77
2022/08/05 00:41:31;;;;;;;3.92;2.10;;;24.10;47.90;;;;;;5053354;28;20049;-77
2022/08/05 00:43:57;;;;;;;3.05;2.00;;;24.10;48.20;;;;;;5053314;28;20482;-77
2022/08/05 00:46:23;;;;;;;3.15;2.65;;;23.90;48.60;;;;;;5053153;28;20063;-77
2022/08/05 00:48:48;;;;;;;4.20;2.58;;;23.90;49.00;;;;;;5053165;28;20021;-77
2022/08/05 00:51:14;;;;;;;3.97;2.22;;;23.90;49.20;;;;;;5053293;28;20032;-77
2022/08/05 00:53:40;;;;;;;6.20;2.65;;;23.90;49.30;;;;;;5053125;28;20032;-77
2022/08/05 00:56:06;;;;;;;2.58;2.33;;;24.00;49.20;;;;;;5051882;28;20044;-76
2022/08/05 00:58:32;;;;;;;4.18;2.63;;;24.00;49.50;;;;;;5053080;28;20024;-77
2022/08/05 01:00:58;;;;;;;3.95;2.28;;;24.10;49.30;;;;;;5053225;28;20033;-77
2022/08/05 01:03:24;;;;;;;3.15;2.28;;;24.10;49.30;;;;;;5061352;28;20029;-77
2022/08/05 01:05:51;;;;;;;4.13;2.40;;;24.00;49.00;;;;;;5057628;28;20462;-76
2022/08/05 01:08:16;;;;;;;3.72;2.58;;;23.80;49.40;;;;;;5058906;28;20047;-76
2022/08/05 01:10:53;;;;;;;4.07;2.53;;;23.50;50.40;;;;;;5054047;28;20461;-77
2022/08/05 01:13:51;;;;;;;2.85;2.53;;;23.40;50.90;;;;;;5053274;28;20091;-77
2022/08/05 01:16:27;;;;;;;3.22;2.42;;;23.30;51.40;;;;;;5050718;28;20397;-76
2022/08/05 01:18:59;;;;;;;3.03;2.63;;;23.30;51.40;;;;;;5052837;28;20067;-77
2022/08/05 01:22:05;;;;;;;3.42;2.60;;;23.20;51.50;;;;;;5052847;28;20024;-76
2022/08/05 01:24:40;;;;;;;3.25;2.47;;;23.00;51.20;;;;;;5052914;28;20029;-76
2022/08/05 01:27:36;;;;;;;3.73;2.40;;;23.00;51.40;;;;;;5052740;28;20037;-76
2022/08/05 01:30:05;;;;;;;2.85;2.55;;;23.00;51.30;;;;;;5052906;28;20260;-77
2022/08/05 01:32:34;;;;;;;6.55;2.88;;;23.00;51.20;;;;;;5052634;28;20095;-77
2022/08/05 01:35:06;;;;;;;3.25;2.50;;;23.00;51.30;;;;;;5052892;28;20487;-77
2022/08/05 01:37:44;;;;;;;2.90;2.33;;;23.10;51.60;;;;;;5052802;28;20028;-77
2022/08/05 01:40:11;;;;;;;6.15;2.67;;;23.10;51.50;;;;;;5052822;28;20017;-76
2022/08/05 01:42:39;;;;;;;2.60;2.40;;;23.20;51.60;;;;;;5085194;28;20036;-77
2022/08/05 01:45:06;;;;;;;3.75;2.70;;;23.20;51.30;;;;;;5052659;28;20013;-77
2022/08/05 01:47:34;;;;;;;4.13;2.20;;;23.30;50.90;;;;;;5052454;28;20486;-77
2022/08/05 01:50:03;;;;;;;2.60;2.40;;;23.30;50.70;;;;;;5052595;28;20032;-77
2022/08/05 01:52:30;;;;;;;3.28;2.30;;;23.50;50.30;;;;;;5052681;28;20122;-78
2022/08/05 01:55:01;;;;;;;5.55;2.55;;;23.50;49.90;;;;;;5052763;28;20023;-77
2022/08/05 01:57:30;;;;;;;8.90;2.53;;;23.60;49.90;;;;;;5054457;28;20020;-77
2022/08/05 02:00:01;;;;;;;4.10;2.50;;;23.60;50.00;;;;;;5056450;28;20029;-78
2022/08/05 02:02:30;;;;;;;2.50;2.30;;;23.50;50.30;;;;;;5056509;28;20035;-77
2022/08/05 02:04:59;;;;;;;2.10;2.00;;;23.60;50.40;;;;;;5056295;28;20067;-77
2022/08/05 02:07:25;;;;;;;2.13;1.98;;;23.60;50.20;;;;;;5056197;28;20064;-77
2022/08/05 02:09:51;;;;;;;4.05;2.50;;;23.60;50.40;;;;;;5056326;28;20029;-77
2022/08/05 02:12:41;;;;;;;3.28;2.10;;;23.70;50.40;;;;;;5056165;28;20021;-77
2022/08/05 02:15:24;;;;;;;5.18;2.58;;;23.70;50.30;;;;;;5056058;28;20017;-77
2022/08/05 02:18:02;;;;;;;4.25;2.08;;;23.70;50.60;;;;;;5056133;28;20047;-77
2022/08/05 02:20:38;;;;;;;2.13;2.00;;;23.70;50.50;;;;;;5055362;28;20061;-77
2022/08/05 02:23:09;;;;;;;2.33;2.13;;;23.60;50.50;;;;;;5055702;28;20024;-78
2022/08/05 02:25:36;;;;;;;2.47;2.28;;;23.60;50.50;;;;;;5055718;28;20028;-78
2022/08/05 02:28:05;;;;;;;2.55;2.35;;;23.60;51.20;;;;;;5057720;28;20031;-77
2022/08/05 02:30:43;;;;;;;3.75;2.20;;;23.60;50.30;;;;;;5073122;28;20040;-78
2022/08/05 02:33:11;;;;;;;2.60;2.40;;;23.60;50.20;;;;;;5071798;28;20045;-79
2022/08/05 02:35:39;;;;;;;3.45;2.20;;;23.50;50.70;;;;;;5055787;28;20028;-78
2022/08/05 02:38:06;;;;;;;2.65;2.17;;;23.50;51.10;;;;;;5055359;28;20017;-78
2022/08/05 02:40:32;;;;;;;3.30;2.20;;;23.30;51.30;;;;;;5055510;28;20465;-77
2022/08/05 02:42:59;;;;;;;4.10;2.38;;;23.30;51.60;;;;;;5055460;28;20028;-77
2022/08/05 02:45:27;;;;;;;4.20;2.40;;;23.30;51.80;;;;;;5055039;28;20462;-77
2022/08/05 02:47:54;;;;;;;2.33;1.98;;;23.40;51.70;;;;;;5055355;28;20039;-77
2022/08/05 02:50:21;;;;;;;5.10;2.97;;;23.50;51.40;;;;;;5055297;28;20021;-78
2022/08/05 02:52:48;;;;;;;2.47;2.15;;;23.60;51.20;;;;;;5055305;28;20021;-77
2022/08/05 02:55:14;;;;;;;5.97;2.30;;;23.60;51.10;;;;;;5054329;28;20024;-77
2022/08/05 02:57:40;;;;;;;2.80;2.28;;;23.60;51.20;;;;;;5055318;28;20020;-78
2022/08/05 03:00:08;;;;;;;3.05;2.38;;;23.60;51.30;;;;;;5055248;28;20122;-74
2022/08/05 03:02:38;;;;;;;2.30;1.98;;;23.60;51.70;;;;;;5055132;28;20066;-75
2022/08/05 03:05:06;;;;;;;3.47;2.15;;;23.60;51.80;;;;;;5055048;28;20032;-76
2022/08/05 03:07:33;;;;;;;2.40;2.20;;;23.50;52.10;;;;;;5055515;28;20481;-75
2022/08/05 03:09:59;;;;;;;2.42;2.22;;;23.40;52.10;;;;;;5053875;28;20440;-76
2022/08/05 03:12:34;;;;;;;2.63;2.42;;;23.30;52.40;;;;;;5054991;28;20039;-75
2022/08/05 03:15:01;;;;;;;3.55;2.45;;;23.40;52.60;;;;;;5054780;28;20025;-76
2022/08/05 03:17:26;;;;;;;5.40;2.42;;;23.40;52.70;;;;;;5054851;28;20024;-75
2022/08/05 03:19:52;;;;;;;2.47;2.28;;;23.40;52.80;;;;;;5054870;28;20025;-75
2022/08/05 03:22:18;;;;;;;4.40;2.22;;;23.30;53.20;;;;;;5054714;28;20398;-76
2022/08/05 03:24:45;;;;;;;2.17;2.00;;;23.30;53.50;;;;;;5054851;28;20029;-75
2022/08/05 03:27:11;;;;;;;2.90;2.20;;;23.20;53.60;;;;;;5054445;28;20094;-75
2022/08/05 03:29:39;;;;;;;2.15;1.95;;;23.10;53.80;;;;;;5053506;28;20060;-76
2022/08/05 03:32:06;;;;;;;2.20;2.00;;;23.10;53.60;;;;;;5054532;28;20028;-76
2022/08/05 03:34:32;;;;;;;4.60;2.40;;;23.00;53.40;;;;;;5054591;28;20025;-75
2022/08/05 03:36:58;;;;;;;6.28;2.28;;;23.00;53.30;;;;;;5055255;28;20121;-75
2022/08/05 03:39:23;;;;;;;2.10;1.95;;;23.00;53.40;;;;;;5055475;28;20024;-76
2022/08/05 03:41:49;;;;;;;3.17;2.10;;;22.90;53.40;;;;;;5053584;28;20082;-76
2022/08/05 03:44:14;;;;;;;2.45;2.10;;;22.90;53.30;;;;;;5054665;28;20488;-75
2022/08/05 03:46:40;;;;;;;2.60;2.40;;;22.90;53.70;;;;;;5054474;28;20486;-76
2022/08/05 03:49:06;;;;;;;2.50;2.30;;;22.90;53.70;;;;;;5054313;28;20057;-76
2022/08/05 03:51:42;;;;;;;4.35;2.60;;;22.80;53.90;;;;;;5054185;28;20025;-75
2022/08/05 03:54:16;;;;;;;4.10;2.47;;;22.80;54.40;;;;;;5054130;28;20079;-75
2022/08/05 03:56:44;;;;;;;2.60;2.40;;;22.70;54.60;;;;;;5054013;28;20021;-75
2022/08/05 03:59:20;;;;;;;3.47;2.60;;;22.70;54.70;;;;;;5052705;28;20062;-75
2022/08/05 04:01:48;;;;;;;3.03;2.83;;;22.70;54.90;;;;;;5054082;28;20100;-76
2022/08/05 04:04:14;;;;;;;3.00;2.60;;;22.60;55.00;;;;;;5053976;28;20021;-76
2022/08/05 04:06:41;;;;;;;3.50;2.70;;;22.60;54.80;;;;;;5053785;28;20132;-75
2022/08/05 04:09:07;;;;;;;3.42;2.70;;;22.60;54.70;;;;;;5053796;28;20095;-76
2022/08/05 04:11:35;;;;;;;2.60;2.40;;;22.70;54.70;;;;;;5052636;28;20036;-75
2022/08/05 04:14:01;;;;;;;2.92;2.53;;;22.70;54.60;;;;;;5053621;28;20363;-75
2022/08/05 04:16:27;;;;;;;3.75;2.70;;;22.70;54.70;;;;;;5053686;28;20021;-76
2022/08/05 04:18:53;;;;;;;3.95;2.20;;;22.70;54.80;;;;;;5053809;28;20100;-76
2022/08/05 04:21:19;;;;;;;3.47;2.45;;;22.50;54.70;;;;;;5053241;28;20362;-76
2022/08/05 04:23:44;;;;;;;7.72;2.35;;;22.40;54.10;;;;;;5053637;28;20020;-75
2022/08/05 04:26:11;;;;;;;10.07;2.85;;;22.40;53.70;;;;;;5053433;28;20029;-76
2022/08/05 04:28:37;;;;;;;6.38;2.60;;;22.30;53.40;;;;;;5052080;28;20053;-75
2022/08/05 04:31:02;;;;;;;3.35;2.70;;;22.30;53.80;;;;;;5053459;28;20053;-75
2022/08/05 04:33:28;;;;;;;3.60;2.50;;;22.30;54.30;;;;;;5053227;28;20186;-75
2022/08/05 04:35:54;;;;;;;2.75;2.15;;;22.20;54.30;;;;;;5053320;28;20025;-76
2022/08/05 04:38:20;;;;;;;5.70;2.80;;;22.20;54.10;;;;;;5053320;28;20473;-76
2022/08/05 04:40:45;;;;;;;2.65;2.30;;;22.20;54.40;;;;;;5053358;28;20025;-76
2022/08/05 04:43:11;;;;;;;2.50;1.98;;;22.30;54.40;;;;;;5053249;28;20025;-74
2022/08/05 04:45:36;;;;;;;3.63;2.30;;;22.30;54.40;;;;;;5051847;28;20474;-75
2022/08/05 04:48:13;;;;;;;3.10;2.45;;;22.40;54.20;;;;;;5052595;28;20051;-74
2022/08/05 04:50:47;;;;;;;4.63;2.20;;;22.50;54.20;;;;;;5053199;28;20033;-74
2022/08/05 04:53:15;;;;;;;2.30;2.10;;;22.50;53.80;;;;;;5053154;28;20103;-76
2022/08/05 04:55:42;;;;;;;4.75;2.50;;;22.40;53.80;;;;;;5052970;28;20028;-74
2022/08/05 04:58:09;;;;;;;4.45;2.38;;;22.50;53.50;;;;;;5053983;28;20025;-75
2022/08/05 05:00:36;;;;;;;5.10;2.40;;;22.50;52.50;;;;;;5054318;28;20028;-77
2022/08/05 05:03:03;;;;;;;2.60;2.05;;;22.50;52.50;;;;;;5053697;28;20025;-75
2022/08/05 05:05:29;;;;;;;6.07;2.40;;;22.70;52.30;;;;;;5052742;28;20027;-75
2022/08/05 05:08:06;;;;;;;3.78;2.08;;;22.80;52.00;;;;;;5052945;28;20033;-75
2022/08/05 05:10:43;;;;;;;6.88;2.50;;;22.90;51.60;;;;;;5051710;28;20052;-74
2022/08/05 05:13:12;;;;;;;2.85;2.13;;;23.00;51.10;;;;;;5052882;28;20029;-75
2022/08/05 05:15:38;;;;;;;2.90;2.03;;;23.00;50.90;;;;;;5052507;28;20025;-75
2022/08/05 05:18:04;;;;;;;3.80;2.05;;;23.00;51.00;;;;;;5052633;28;20025;-74
2022/08/05 05:20:30;;;;;;;9.00;2.58;;;23.10;51.50;;;;;;5052423;28;20025;-74
2022/08/05 05:22:57;;;;;;;6.07;1.92;;;23.00;51.50;;;;;;5052771;28;20095;-74
2022/08/05 05:25:22;;;;;;;3.97;1.95;;;23.00;51.60;;;;;;5052559;28;20021;-74
2022/08/05 05:27:51;;;;;;;8.13;3.00;;;23.10;51.60;;;;;;5052556;28;20090;-74
2022/08/05 05:30:17;;;;;;;7.97;2.67;;;23.20;52.20;;;;;;5052536;28;20473;-74
2022/08/05 05:32:42;;;;;;;3.15;2.85;;;23.10;52.40;;;;;;5054786;28;20055;-74
2022/08/05 05:35:08;;;;;;;5.50;2.60;;;23.10;52.20;;;;;;5056678;28;20033;-74
2022/08/05 05:37:44;;;;;;;5.60;2.75;;;23.20;51.80;;;;;;5056450;28;20100;-74
2022/08/05 05:40:14;;;;;;;4.18;2.63;;;23.30;51.70;;;;;;5055291;28;20028;-75
2022/08/05 05:42:39;;;;;;;6.10;2.88;;;23.50;51.10;;;;;;5056459;28;20056;-75
2022/08/05 05:45:05;;;;;;;16.02;3.15;;;23.60;50.30;;;;;;5056386;28;20021;-76
2022/08/05 05:47:31;;;;;;;10.65;2.67;;;23.80;50.10;;;;;;5056125;28;20500;-76
2022/08/05 05:49:57;;;;;;;17.73;3.45;;;24.00;49.90;;;;;;5056198;28;20025;-75
2022/08/05 05:52:23;;;;;;;8.45;2.90;;;24.30;49.30;;;;;;5056334;28;20025;-76
2022/08/05 05:54:49;;;;;;;5.97;2.90;;;24.50;48.70;;;;;;5056917;28;20027;-77
2022/08/05 05:57:14;;;;;;;5.72;2.78;;;24.60;48.60;;;;;;5056166;28;20393;-75
2022/08/05 05:59:40;;;;;;;16.15;4.20;;;24.70;47.00;;;;;;5056087;28;20035;-74
2022/08/05 06:02:06;;;;;;;8.50;3.47;;;24.90;47.00;;;;;;5088474;28;20028;-75
2022/08/05 06:04:31;;;;;;;7.20;2.97;;;25.00;46.60;;;;;;5055972;28;20040;-72
2022/08/05 06:06:57;;;;;;;7.65;2.78;;;25.10;45.60;;;;;;5056032;28;20039;-74
2022/08/05 06:09:22;;;;;;;4.95;2.67;;;25.10;44.40;;;;;;5055947;28;20083;-73
2022/08/05 06:11:48;;;;;;;10.38;4.40;;;25.20;44.30;;;;;;5054490;28;20438;-74
2022/08/05 06:14:13;;;;;;;8.63;3.42;;;25.20;44.40;;;;;;5056003;28;20264;-74
2022/08/05 06:16:39;;;;;;;5.25;2.40;;;25.30;44.30;;;;;;5055909;28;20029;-74
2022/08/05 06:19:05;;;;;;;6.78;2.85;;;25.30;44.80;;;;;;5055711;28;20017;-74
2022/08/05 06:21:31;;;;;;;7.35;3.25;;;25.30;45.00;;;;;;5055794;28;20470;-74
2022/08/05 06:23:58;;;;;;;7.20;2.80;;;25.40;44.80;;;;;;5055847;28;20017;-75
2022/08/05 06:26:23;;;;;;;6.82;2.90;;;25.60;44.60;;;;;;5057106;28;20029;-75
2022/08/05 06:28:49;;;;;;;10.70;3.17;;;25.70;44.70;;;;;;5055882;28;20028;-75
2022/08/05 06:31:15;;;;;;;5.15;3.13;;;25.80;44.50;;;;;;5054281;28;20507;-75
2022/08/05 06:33:40;;;;;;;10.75;4.47;;;25.90;44.10;;;;;;5055426;28;20041;-75
2022/08/05 06:36:06;;;;;;;6.03;2.80;;;26.00;44.40;;;;;;5055689;28;20029;-76
2022/08/05 06:38:31;;;;;;;8.23;3.33;;;26.00;44.90;;;;;;5055152;28;20032;-75
2022/08/05 06:40:57;;;;;;;6.55;3.10;;;25.70;45.60;;;;;;5056503;28;20413;-75
2022/08/05 06:43:23;;;;;;;9.02;2.92;;;25.60;46.00;;;;;;5053675;28;20025;-75
2022/08/05 06:45:48;;;;;;;6.72;2.88;;;25.70;46.10;;;;;;5055341;28;20028;-75
2022/08/05 06:48:14;;;;;;;4.63;2.83;;;25.80;45.30;;;;;;5055518;28;20025;-75
2022/08/05 06:50:39;;;;;;;7.85;2.78;;;26.00;45.00;;;;;;5055209;28;20112;-75
2022/08/05 06:53:05;;;;;;;7.72;3.05;;;26.00;44.80;;;;;;5055283;28;20037;-75
2022/08/05 06:55:30;;;;;;;5.63;2.55;;;26.30;44.40;;;;;;5055127;28;20099;-75
2022/08/05 06:57:56;;;;;;;8.68;3.15;;;26.50;44.00;;;;;;5037150;28;20032;-74
2022/08/05 07:00:21;;;;;;;14.05;3.55;;;26.60;43.60;;;;;;5055195;28;20027;-76
2022/08/05 07:02:47;;;;;;;7.03;2.83;;;26.80;43.30;;;;;;5055627;28;20025;-75
2022/08/05 07:05:13;;;;;;;4.38;3.00;;;26.90;43.30;;;;;;5062985;28;20052;-75
2022/08/05 07:07:39;;;;;;;8.95;2.60;;;26.90;43.40;;;;;;5054826;28;20119;-76
2022/08/05 07:10:07;;;;;;;5.07;2.60;;;26.80;43.90;;;;;;5054657;28;20545;-74
2022/08/05 07:18:01;;;;;;;10.65;3.13;;;26.40;44.90;;;;;;5054799;28;20508;-75
2022/08/05 07:20:26;;;;;;;5.68;2.90;;;26.40;45.00;;;;;;5054286;28;20029;-74
2022/08/05 07:22:52;;;;;;;8.38;3.40;;;26.40;44.90;;;;;;5054329;28;20059;-74
2022/08/05 07:25:17;;;;;;;8.88;2.95;;;26.60;44.70;;;;;;5054311;28;20032;-74
2022/08/05 07:27:43;;;;;;;11.25;3.35;;;26.70;44.20;;;;;;5054239;28;20037;-74
2022/08/05 07:30:09;;;;;;;7.70;3.50;;;26.60;44.30;;;;;;5054340;28;20028;-74
2022/08/05 07:32:37;;;;;;;7.28;3.20;;;26.80;44.00;;;;;;5053977;28;20131;-75
2022/08/05 07:35:07;;;;;;;10.77;3.08;;;26.80;44.10;;;;;;5053238;28;20048;-81
2022/08/05 07:37:33;;;;;;;6.90;2.90;;;26.90;43.90;;;;;;5052959;28;20021;-81
2022/08/05 07:39:58;;;;;;;7.07;2.72;;;27.20;43.70;;;;;;5086628;28;20530;-86
2022/08/05 07:42:24;;;;;;;13.27;2.75;;;27.30;42.60;;;;;;5054129;28;20025;-77
2022/08/05 07:44:50;;;;;;;10.68;2.72;;;27.50;42.10;;;;;;5053763;28;20029;-81
2022/08/05 07:47:15;;;;;;;7.03;2.20;;;27.40;41.80;;;;;;5053360;28;20130;-82
2022/08/05 07:49:51;;;;;;;6.55;2.55;;;27.00;41.60;;;;;;5054498;28;20044;-85
2022/08/05 07:52:17;;;;;;;4.90;1.92;;;26.80;42.40;;;;;;5055352;28;20122;-84
2022/08/05 07:54:43;;;;;;;8.15;2.22;;;26.70;41.60;;;;;;5053838;28;20017;-85
2022/08/05 07:57:09;;;;;;;3.45;2.30;;;26.80;41.80;;;;;;5054067;28;20493;-81
2022/08/05 07:59:35;;;;;;;3.85;2.20;;;26.90;41.90;;;;;;5053890;28;20384;-85
2022/08/05 08:02:01;;;;;;;4.00;2.10;;;27.10;41.80;;;;;;5053711;28;20115;-78
2022/08/05 08:04:27;;;;;;;2.63;2.10;;;27.30;41.40;;;;;;5053694;28;20543;-78
2022/08/05 08:06:52;;;;;;;3.42;1.98;;;27.50;40.90;;;;;;5053867;28;20033;-83
2022/08/05 08:09:19;;;;;;;4.78;2.28;;;27.60;40.50;;;;;;5053697;28;20470;-86
2022/08/05 08:11:44;;;;;;;9.05;2.63;;;27.40;41.10;;;;;;5053401;28;20108;-81
2022/08/05 08:14:10;;;;;;;7.15;2.28;;;27.30;41.30;;;;;;5053573;28;20100;-82
2022/08/05 08:16:35;;;;;;;6.50;2.30;;;27.10;42.00;;;;;;5053357;28;20501;-79
2022/08/05 08:19:01;;;;;;;4.05;2.50;;;27.40;41.70;;;;;;5053366;28;20539;-82
2022/08/05 08:21:26;;;;;;;2.38;1.90;;;27.50;41.00;;;;;;5052260;28;20389;-79
2022/08/05 08:23:52;;;;;;;5.53;2.20;;;27.60;40.00;;;;;;5053639;28;20525;-83
2022/08/05 08:26:18;;;;;;;3.83;2.05;;;27.50;39.60;;;;;;5053256;28;20032;-82
2022/08/05 08:28:43;;;;;;;4.45;1.63;;;27.40;40.20;;;;;;5053316;28;20144;-83
2022/08/05 08:31:09;;;;;;;1.98;1.70;;;27.40;40.70;;;;;;5053317;28;20029;-83
2022/08/05 08:33:35;;;;;;;5.00;2.55;;;27.60;40.00;;;;;;5053326;28;20045;-81
2022/08/05 08:36:00;;;;;;;3.03;1.80;;;27.80;39.50;;;;;;5053428;28;20537;-83
2022/08/05 08:38:26;;;;;;;2.45;1.70;;;27.90;38.80;;;;;;5052947;28;20035;-83
2022/08/05 08:40:52;;;;;;;6.47;1.70;;;28.00;38.80;;;;;;5052863;28;20057;-79
2022/08/05 08:43:18;;;;;;;2.72;1.92;;;28.00;38.50;;;;;;5053131;28;20083;-81
2022/08/05 08:45:47;;;;;;;4.32;1.80;;;28.10;38.10;;;;;;5052979;28;20017;-78
2022/08/05 08:48:15;;;;;;;6.65;1.90;;;28.10;38.00;;;;;;5053607;28;20059;-83
2022/08/05 08:50:43;;;;;;;4.70;1.77;;;28.10;37.80;;;;;;5095186;28;20493;-78
2022/08/05 08:53:12;;;;;;;4.18;1.70;;;28.10;37.30;;;;;;5070578;28;20033;-77
2022/08/05 08:55:39;;;;;;;3.03;2.05;;;27.90;37.10;;;;;;5070755;28;20381;-82
2022/08/05 08:58:05;;;;;;;1.88;1.67;;;28.00;37.50;;;;;;5055020;28;20096;-84
2022/08/05 09:00:30;;;;;;;2.42;1.40;;;28.10;37.20;;;;;;5053490;28;20524;-77
2022/08/05 09:02:56;;;;;;;4.57;1.73;;;28.30;37.30;;;;;;5054832;28;20041;-91
2022/08/05 09:05:23;;;;;;;1.70;1.60;;;28.50;37.20;;;;;;5055672;28;20118;-87
2022/08/05 09:07:51;;;;;;;3.55;1.70;;;28.80;36.40;;;;;;5052889;28;20040;-84
2022/08/05 09:10:17;;;;;;;3.22;1.67;;;29.00;35.70;;;;;;5053166;28;20046;-85
2022/08/05 09:12:42;;;;;;;1.60;1.50;;;29.10;35.30;;;;;;5052777;28;20025;-80
2022/08/05 09:15:09;;;;;;;1.77;1.38;;;29.00;35.30;;;;;;5052618;28;20044;-76
2022/08/05 09:17:34;;;;;;;2.45;1.30;;;29.00;35.30;;;;;;5052263;28;20032;-78
2022/08/05 09:20:01;;;;;;;2.08;1.70;;;28.90;35.10;;;;;;5051222;28;20025;-79
2022/08/05 09:22:27;;;;;;;3.25;1.70;;;28.80;35.40;;;;;;5052638;28;20088;-79
2022/08/05 09:25:02;;;;;;;2.53;1.80;;;28.70;35.70;;;;;;5052494;28;20021;-79
2022/08/05 09:27:33;;;;;;;2.15;1.58;;;28.80;35.60;;;;;;5052401;28;20313;-80
2022/08/05 09:29:59;;;;;;;3.72;2.40;;;28.90;35.40;;;;;;5052528;28;20448;-79
2022/08/05 09:32:38;;;;;;;4.38;2.10;;;29.10;35.60;;;;;;5051051;28;20128;-80
2022/08/05 09:35:12;;;;;;;3.78;1.67;;;29.50;34.70;;;;;;5052776;28;20032;-83
2022/08/05 09:37:48;;;;;;;2.03;1.50;;;29.60;34.30;;;;;;5052592;28;20394;-79
2022/08/05 09:40:35;;;;;;;1.50;1.40;;;29.70;33.90;;;;;;5052399;28;20029;-79
2022/08/05 09:43:05;;;;;;;3.90;1.70;;;29.80;33.10;;;;;;5052303;28;20025;-79
2022/08/05 09:45:39;;;;;;;1.52;1.20;;;30.00;33.40;;;;;;5050946;28;20040;-79
2022/08/05 09:48:24;;;;;;;5.10;1.50;;;30.30;33.50;;;;;;5052246;28;20037;-77
2022/08/05 09:50:52;;;;;;;5.45;1.50;;;30.40;32.80;;;;;;5051086;28;20024;-77
2022/08/05 09:53:18;;;;;;;2.15;1.52;;;30.30;32.70;;;;;;5052249;28;20378;-79
2022/08/05 09:55:44;;;;;;;3.33;1.73;;;30.20;33.00;;;;;;5052283;28;20059;-77
2022/08/05 09:58:12;;;;;;;3.28;1.45;;;30.40;32.80;;;;;;5052223;28;20093;-76
2022/08/05 10:00:38;;;;;;;1.90;1.40;;;30.40;32.10;;;;;;5052214;28;20029;-77
2022/08/05 10:03:10;;;;;;;2.95;1.50;;;30.50;32.50;;;;;;5052425;28;20021;-80
2022/08/05 10:05:37;;;;;;;2.13;1.45;;;30.70;32.10;;;;;;5052126;28;20025;-79
2022/08/05 10:08:05;;;;;;;1.17;1.10;;;30.80;31.70;;;;;;5052175;28;20025;-80
2022/08/05 10:10:36;;;;;;;1.80;1.38;;;31.00;31.60;;;;;;5052029;28;20032;-80
2022/08/05 10:13:03;;;;;;;3.97;1.50;;;31.10;31.40;;;;;;5052127;28;20036;-79
2022/08/05 10:15:30;;;;;;;1.40;1.30;;;31.10;30.60;;;;;;5052244;28;20516;-77
2022/08/05 10:18:16;;;;;;;2.78;1.23;;;31.20;30.50;;;;;;5053050;28;20087;-80
2022/08/05 10:20:44;;;;;;;2.95;1.40;;;31.30;30.70;;;;;;5056279;28;20029;-77
2022/08/05 10:23:13;;;;;;;4.47;1.70;;;31.60;30.30;;;;;;5057707;28;20100;-77
2022/08/05 10:25:39;;;;;;;2.70;1.35;;;31.50;29.30;;;;;;5059695;28;20087;-78
2022/08/05 10:28:06;;;;;;;2.15;1.40;;;31.30;30.60;;;;;;5060432;28;20082;-77
2022/08/05 10:30:33;;;;;;;4.40;1.80;;;31.30;30.20;;;;;;5059734;28;20127;-77
2022/08/05 10:32:59;;;;;;;2.20;1.48;;;31.60;30.70;;;;;;5067469;28;20112;-81
2022/08/05 10:35:25;;;;;;;1.20;1.10;;;31.90;29.90;;;;;;5079134;28;20028;-78
2022/08/05 10:37:51;;;;;;;1.95;1.63;;;32.20;29.60;;;;;;5064802;28;20028;-83
2022/08/05 10:40:37;;;;;;;1.58;1.25;;;32.30;29.20;;;;;;5055721;28;20021;-81
2022/08/05 10:43:16;;;;;;;1.85;1.20;;;32.40;28.90;;;;;;5055463;28;20534;-82
2022/08/05 10:45:53;;;;;;;2.72;1.50;;;32.50;28.70;;;;;;5055159;28;20493;-83
2022/08/05 10:48:29;;;;;;;2.70;1.58;;;32.50;28.60;;;;;;5055157;28;20112;-81
2022/08/05 10:51:04;;;;;;;3.08;1.60;;;32.60;28.40;;;;;;5055121;28;20099;-82
2022/08/05 10:53:40;;;;;;;;;;;32.70;28.60;;;;;;5055491;28;20029;-82
2022/08/05 10:56:15;;;;;;;2.40;1.30;;;32.80;28.20;;;;;;5055197;28;19909;-82
2022/08/05 10:58:57;;;;;;;2.38;1.40;;;33.10;28.00;;;;;;5054864;28;20112;-82
2022/08/05 11:01:36;;;;;;;1.80;1.63;;;33.30;27.80;;;;;;5055141;28;20478;-82
2022/08/05 11:04:20;;;;;;;1.88;1.67;;;33.50;27.10;;;;;;5055113;28;20021;-81
2022/08/05 11:07:03;;;;;;;2.92;1.58;;;33.50;26.40;;;;;;5054807;28;20032;-81
2022/08/05 11:09:48;;;;;;;2.03;1.60;;;33.40;27.30;;;;;;5054944;28;20025;-80
2022/08/05 11:12:25;;;;;;;5.40;2.20;;;33.40;27.30;;;;;;5055001;28;20021;-77
2022/08/05 11:15:08;;;;;;;2.25;1.55;;;33.30;26.80;;;;;;5054776;28;20028;-79
2022/08/05 11:17:38;;;;;;;2.05;1.85;;;33.20;27.50;;;;;;5055109;28;20029;-81
2022/08/05 11:20:33;;;;;;;4.22;1.98;;;33.30;27.70;;;;;;5061548;28;20040;-79
2022/08/05 11:22:59;;;;;;;5.50;2.17;;;33.40;27.30;;;;;;5059245;28;20032;-82
2022/08/05 11:25:37;;;;;;;4.03;1.63;;;33.60;27.30;;;;;;5055676;28;20033;-82
2022/08/05 11:28:10;;;;;;;4.45;2.15;;;33.40;26.50;;;;;;5054543;28;20029;-81
2022/08/05 11:30:54;;;;;;;4.03;1.80;;;33.20;26.90;;;;;;5053709;28;20017;-81
2022/08/05 11:33:51;;;;;;;2.85;2.08;;;33.30;27.60;;;;;;5053119;28;20044;-82
2022/08/05 11:36:37;;;;;;;5.53;1.92;;;33.60;27.20;;;;;;5056136;28;20028;-81
2022/08/05 11:39:04;;;;;;;5.07;1.98;;;33.60;26.80;;;;;;5056980;28;20144;-80
2022/08/05 11:41:34;;;;;;;4.70;1.98;;;33.40;27.20;;;;;;5058964;28;20382;-82
2022/08/05 11:44:02;;;;;;;2.78;1.60;;;33.40;27.70;;;;;;5073720;28;20005;-81
2022/08/05 11:46:29;;;;;;;6.70;2.05;;;33.40;27.20;;;;;;5075229;28;20063;-81
2022/08/05 11:48:56;;;;;;;2.97;1.80;;;33.50;26.90;;;;;;5077527;28;20087;-81
2022/08/05 11:51:23;;;;;;;5.78;1.80;;;33.70;27.50;;;;;;5070977;28;20395;-82
2022/08/05 11:53:48;;;;;;;3.28;1.65;;;33.60;26.90;;;;;;5074407;28;20084;-83
2022/08/05 11:56:14;;;;;;;3.80;1.70;;;33.90;26.70;;;;;;5056043;28;20040;-81
2022/08/05 11:58:42;;;;;;;3.67;2.10;;;34.30;26.80;;;;;;5054536;28;20076;-81
2022/08/05 12:01:10;;;;;;;2.03;1.83;;;34.60;25.90;;;;;;5054568;28;20025;-83
2022/08/05 12:03:47;;;;;;;1.83;1.73;;;35.00;25.80;;;;;;5054178;28;20017;-81
2022/08/05 12:06:14;;;;;;;2.70;1.90;;;35.00;25.10;;;;;;5053929;28;20024;-81
2022/08/05 12:08:51;;;;;;;3.70;1.90;;;35.00;25.20;;;;;;5054272;28;20041;-80
2022/08/05 12:11:23;;;;;;;2.63;1.70;;;35.10;25.00;;;;;;5059124;28;20028;-81
2022/08/05 12:14:08;;;;;;;2.25;1.80;;;34.90;24.20;;;;;;5054228;28;20033;-82
2022/08/05 12:16:35;;;;;;;3.28;1.60;;;34.90;24.90;;;;;;5053435;28;20025;-84
2022/08/05 12:19:02;;;;;;;3.47;2.00;;;34.50;25.40;;;;;;5054366;28;20076;-83
2022/08/05 12:21:30;;;;;;;2.00;1.80;;;34.20;26.10;;;;;;5054307;28;20029;-83
2022/08/05 12:24:20;;;;;;;3.95;2.00;;;34.00;26.60;;;;;;5054738;28;20032;-83
2022/08/05 12:26:49;;;;;;;5.38;2.08;;;34.20;26.80;;;;;;5053705;28;20060;-82
2022/08/05 12:29:20;;;;;;;1.88;1.73;;;34.40;26.10;;;;;;5052195;28;20395;-83
2022/08/05 12:31:50;;;;;;;4.05;1.77;;;34.40;25.70;;;;;;5054848;28;20075;-82
2022/08/05 12:34:18;;;;;;;3.78;2.15;;;34.30;25.50;;;;;;5056329;28;20061;-83
2022/08/05 12:36:46;;;;;;;3.28;1.88;;;34.30;26.10;;;;;;5054785;28;20029;-85
2022/08/05 12:39:12;;;;;;;4.47;2.05;;;34.40;26.50;;;;;;5053910;28;20093;-86
2022/08/05 12:41:39;;;;;;;4.15;2.33;;;34.30;26.00;;;;;;5053381;28;20024;-86
2022/08/05 12:44:09;;;;;;;2.38;2.25;;;34.30;26.30;;;;;;5053378;28;20028;-86
2022/08/05 12:46:36;;;;;;;3.30;2.45;;;34.50;26.60;;;;;;5053289;28;20040;-81
2022/08/05 12:49:10;;;;;;;2.28;2.00;;;34.80;24.90;;;;;;5052076;28;20025;-85
2022/08/05 12:51:51;;;;;;;2.85;2.00;;;35.00;25.20;;;;;;5053544;28;20021;-84
2022/08/05 12:54:29;;;;;;;4.50;2.13;;;35.40;25.00;;;;;;5053939;28;20472;-82
2022/08/05 12:56:59;;;;;;;2.33;1.73;;;35.40;24.50;;;;;;5054164;28;20028;-85
2022/08/05 12:59:41;;;;;;;2.60;1.60;;;35.60;24.40;;;;;;5053992;28;20053;-85